createdAt,value
2018-04-11T00:00:40.557Z,58.97
2018-04-11T00:03:11.552Z,58.96
2018-04-11T00:05:49.492Z,58.90
2018-04-11T00:08:20.526Z,59.14
2018-04-11T00:10:51.530Z,59.34
2018-04-11T00:13:22.529Z,59.21
2018-04-11T00:15:53.488Z,59.01
2018-04-11T00:18:24.451Z,58.56
2018-04-11T00:20:55.435Z,58.12
2018-04-11T00:23:26.465Z,58.18
2018-04-11T00:25:57.437Z,58.25
2018-04-11T00:28:28.443Z,58.40
2018-04-11T00:30:59.411Z,58.68
2018-04-11T00:33:30.424Z,58.86
2018-04-11T00:36:01.385Z,59.06
2018-04-11T00:38:32.363Z,58.95
2018-04-11T00:41:03.334Z,58.92
2018-04-11T00:43:34.342Z,58.98
2018-04-11T00:46:05.346Z,59.21
2018-04-11T00:48:36.357Z,59.39
2018-04-11T00:51:07.360Z,59.70
2018-04-11T00:53:38.386Z,59.87
2018-04-11T00:56:09.406Z,59.51
2018-04-11T00:58:40.381Z,59.59
2018-04-11T01:01:11.378Z,60.02
2018-04-11T01:03:42.396Z,59.85
2018-04-11T01:06:13.496Z,59.82
2018-04-11T01:08:44.504Z,60.10
2018-04-11T01:11:15.517Z,59.90
2018-04-11T01:13:46.526Z,60.12
2018-04-11T01:16:17.562Z,59.94
2018-04-11T01:18:48.558Z,60.06
2018-04-11T01:21:19.550Z,59.97
2018-04-11T01:23:50.558Z,60.17
2018-04-11T01:26:21.571Z,60.46
2018-04-11T01:28:52.575Z,60.82
2018-04-11T01:31:23.557Z,61.22
2018-04-11T01:33:54.544Z,61.57
2018-04-11T01:36:25.535Z,61.60
2018-04-11T01:38:56.518Z,61.50
2018-04-11T01:41:27.532Z,61.66
2018-04-11T01:43:58.507Z,61.78
2018-04-11T01:46:29.509Z,62.11
2018-04-11T01:49:00.482Z,61.96
2018-04-11T01:51:31.516Z,61.56
2018-04-11T01:54:02.487Z,61.25
2018-04-11T01:56:33.504Z,60.98
2018-04-11T01:59:04.498Z,60.66
2018-04-11T02:01:35.522Z,60.59
2018-04-11T02:04:06.527Z,60.45
2018-04-11T02:06:37.528Z,60.40
2018-04-11T02:09:08.562Z,60.36
2018-04-11T02:11:39.577Z,60.51
2018-04-11T02:14:10.618Z,60.84
2018-04-11T02:16:41.621Z,61.21
2018-04-11T02:19:12.636Z,61.25
2018-04-11T02:21:43.638Z,61.48
2018-04-11T02:24:14.648Z,61.40
2018-04-11T02:26:45.650Z,61.24
2018-04-11T02:29:16.687Z,61.24
2018-04-11T02:31:47.699Z,61.57
2018-04-11T02:34:18.712Z,61.66
2018-04-11T02:36:49.715Z,61.84
2018-04-11T02:39:20.718Z,61.88
2018-04-11T02:41:51.663Z,62.15
2018-04-11T02:44:22.664Z,62.10
2018-04-11T02:46:53.712Z,62.41
2018-04-11T02:49:24.683Z,62.65
2018-04-11T02:51:55.693Z,62.95
2018-04-11T02:54:26.691Z,63.15
2018-04-11T02:56:57.693Z,63.19
2018-04-11T02:59:28.708Z,63.09
2018-04-11T03:01:59.744Z,63.09
2018-04-11T03:04:30.721Z,63.11
2018-04-11T03:07:01.759Z,63.28
2018-04-11T03:09:32.764Z,63.42
2018-04-11T03:12:03.804Z,63.79
2018-04-11T03:14:34.883Z,63.92
2018-04-11T03:17:05.928Z,63.72
2018-04-11T03:19:36.981Z,63.60
2018-04-11T03:22:07.972Z,63.60
2018-04-11T03:24:38.980Z,63.62
2018-04-11T03:27:09.986Z,63.56
2018-04-11T03:29:41.018Z,63.27
2018-04-11T03:32:12.063Z,63.26
2018-04-11T03:34:43.083Z,63.10
2018-04-11T03:37:14.114Z,62.97
2018-04-11T03:39:45.160Z,63.10
2018-04-11T03:42:16.168Z,63.02
2018-04-11T03:44:47.144Z,62.94
2018-04-11T03:47:18.139Z,63.09
2018-04-11T03:49:49.112Z,63.33
2018-04-11T03:52:20.088Z,63.18
2018-04-11T03:54:51.090Z,63.19
2018-04-11T03:57:22.072Z,63.98
2018-04-11T03:59:53.102Z,64.43
2018-04-11T04:02:24.107Z,64.37
2018-04-11T04:04:55.123Z,64.64
2018-04-11T04:07:26.099Z,65.35
2018-04-11T04:09:57.174Z,65.37
2018-04-11T04:12:28.191Z,65.22
2018-04-11T04:15:11.345Z,65.32
2018-04-11T04:17:54.521Z,65.07
2018-04-11T04:20:35.972Z,64.82
2018-04-11T04:23:06.997Z,64.55
2018-04-11T04:25:38.032Z,64.42
2018-04-11T04:28:09.076Z,64.51
2018-04-11T04:30:40.062Z,64.60
2018-04-11T04:33:11.172Z,64.89
2018-04-11T04:35:42.152Z,64.74
2018-04-11T04:38:13.156Z,64.77
2018-04-11T04:40:44.133Z,65.02
2018-04-11T04:43:15.155Z,65.12
2018-04-11T04:45:46.188Z,65.34
2018-04-11T04:48:17.232Z,65.52
2018-04-11T04:50:48.240Z,65.95
2018-04-11T04:53:19.242Z,65.82
2018-04-11T04:55:50.257Z,65.76
2018-04-11T04:58:21.251Z,66.45
2018-04-11T05:00:52.195Z,66.64
2018-04-11T05:03:23.155Z,66.74
2018-04-11T05:05:54.186Z,66.96
2018-04-11T05:08:25.197Z,67.30
2018-04-11T05:10:56.219Z,67.41
2018-04-11T05:13:27.202Z,67.46
2018-04-11T05:15:58.223Z,67.97
2018-04-11T05:18:29.214Z,67.88
2018-04-11T05:21:00.268Z,67.98
2018-04-11T05:23:31.314Z,67.99
2018-04-11T05:26:02.351Z,67.93
2018-04-11T05:28:33.391Z,67.93
2018-04-11T05:31:04.389Z,67.83
2018-04-11T05:33:35.379Z,68.05
2018-04-11T05:36:06.403Z,68.65
2018-04-11T05:38:37.406Z,68.76
2018-04-11T05:41:08.422Z,69.04
2018-04-11T05:43:39.466Z,68.94
2018-04-11T05:46:10.472Z,68.33
2018-04-11T05:48:41.529Z,67.93
2018-04-11T05:51:12.591Z,67.77
2018-04-11T05:53:43.555Z,67.35
2018-04-11T05:56:14.603Z,66.95
2018-04-11T05:58:45.653Z,66.54
2018-04-11T06:01:16.619Z,66.20
2018-04-11T06:03:47.685Z,65.22
2018-04-11T06:06:18.676Z,63.76
2018-04-11T06:08:49.700Z,62.23
2018-04-11T06:11:20.704Z,60.64
2018-04-11T06:13:51.730Z,58.98
2018-04-11T06:16:22.732Z,55.85
2018-04-11T06:18:53.709Z,55.38
2018-04-11T06:21:24.726Z,54.01
2018-04-11T06:23:55.675Z,53.32
2018-04-11T06:26:26.646Z,53.46
2018-04-11T06:28:57.621Z,52.54
2018-04-11T06:31:28.627Z,51.21
2018-04-11T06:33:59.590Z,50.60
2018-04-11T06:36:30.603Z,49.87
2018-04-11T06:39:01.622Z,50.11
2018-04-11T06:41:32.563Z,50.40
2018-04-11T06:44:03.545Z,50.39
2018-04-11T06:46:34.565Z,49.96
2018-04-11T06:49:05.603Z,49.40
2018-04-11T06:51:36.644Z,48.46
2018-04-11T06:54:07.687Z,47.98
2018-04-11T06:56:38.726Z,38.78
2018-04-11T06:59:09.728Z,29.00
2018-04-11T07:01:40.738Z,25.67
2018-04-11T07:04:11.697Z,22.24
2018-04-11T07:06:42.709Z,23.40
2018-04-11T07:09:13.688Z,25.39
2018-04-11T07:11:44.699Z,27.21
2018-04-11T07:14:15.672Z,30.02
2018-04-11T07:16:46.728Z,30.37
2018-04-11T07:19:17.715Z,28.98
2018-04-11T07:21:48.737Z,25.78
2018-04-11T07:24:19.735Z,20.48
2018-04-11T07:26:50.700Z,16.65
2018-04-11T07:29:21.706Z,16.78
2018-04-11T07:31:52.693Z,19.18
2018-04-11T07:34:23.720Z,20.89
2018-04-11T07:36:54.692Z,20.76
2018-04-11T07:39:25.729Z,22.11
2018-04-11T07:41:56.712Z,21.17
2018-04-11T07:44:27.689Z,20.29
2018-04-11T07:46:58.699Z,17.63
2018-04-11T07:49:29.726Z,13.96
2018-04-11T07:52:00.701Z,12.17
2018-04-11T07:54:31.741Z,10.56
2018-04-11T07:57:02.696Z,8.84
2018-04-11T07:59:33.778Z,7.96
2018-04-11T08:02:04.882Z,7.28
2018-04-11T08:04:35.932Z,6.75
2018-04-11T08:07:06.983Z,6.55
2018-04-11T08:09:37.998Z,6.40
2018-04-11T08:12:08.993Z,6.04
2018-04-11T08:14:40.072Z,6.12
2018-04-11T08:17:11.111Z,6.46
2018-04-11T08:19:42.218Z,6.57
2018-04-11T08:22:13.262Z,6.48
2018-04-11T08:24:44.314Z,6.03
2018-04-11T08:27:15.309Z,5.67
2018-04-11T08:29:46.340Z,6.03
2018-04-11T08:32:17.353Z,6.36
2018-04-11T08:34:48.357Z,5.68
2018-04-11T08:37:19.364Z,5.33
2018-04-11T08:39:50.348Z,5.00
2018-04-11T08:42:21.346Z,4.94
2018-04-11T08:44:52.321Z,4.62
2018-04-11T08:47:23.368Z,4.31
2018-04-11T08:49:54.335Z,4.54
2018-04-11T08:52:25.298Z,4.53
2018-04-11T08:54:56.314Z,4.51
2018-04-11T08:57:27.298Z,4.66
2018-04-11T08:59:58.317Z,4.68
2018-04-11T09:02:29.364Z,4.89
2018-04-11T09:05:00.339Z,4.97
2018-04-11T09:07:31.383Z,5.04
2018-04-11T09:10:02.389Z,5.38
2018-04-11T09:12:33.404Z,5.33
2018-04-11T09:15:04.427Z,5.13
2018-04-11T09:17:35.445Z,4.80
2018-04-11T09:20:06.443Z,4.42
2018-04-11T09:22:37.460Z,4.47
2018-04-11T09:25:08.432Z,4.49
2018-04-11T09:27:39.440Z,4.44
2018-04-11T09:30:10.422Z,4.19
2018-04-11T09:32:41.449Z,4.03
2018-04-11T09:35:12.460Z,3.77
2018-04-11T09:37:43.495Z,4.08
2018-04-11T09:40:14.536Z,4.13
2018-04-11T09:42:45.574Z,4.45
2018-04-11T09:45:16.615Z,4.44
2018-04-11T09:47:47.651Z,4.47
2018-04-11T09:50:18.666Z,4.23
2018-04-11T09:52:49.651Z,4.65
2018-04-11T09:55:20.682Z,4.51
2018-04-11T09:57:51.718Z,4.37
2018-04-11T10:00:22.807Z,4.33
2018-04-11T10:02:59.759Z,4.65
2018-04-11T10:05:38.182Z,4.75
2018-04-11T10:08:09.229Z,4.77
2018-04-11T10:10:40.248Z,5.15
2018-04-11T10:13:11.243Z,4.99
2018-04-11T10:15:42.264Z,4.79
2018-04-11T10:18:13.332Z,4.78
2018-04-11T10:20:44.358Z,4.89
2018-04-11T10:23:15.376Z,5.09
2018-04-11T10:25:46.407Z,5.09
2018-04-11T10:28:17.436Z,6.03
2018-04-11T10:30:48.423Z,7.00
2018-04-11T10:33:19.467Z,6.85
2018-04-11T10:35:50.470Z,6.48
2018-04-11T10:38:21.532Z,6.35
2018-04-11T10:40:52.535Z,6.08
2018-04-11T10:43:23.525Z,5.84
2018-04-11T10:45:54.535Z,5.49
2018-04-11T10:48:25.590Z,5.43
2018-04-11T10:50:56.590Z,6.85
2018-04-11T10:53:27.625Z,8.56
2018-04-11T10:55:58.610Z,8.97
2018-04-11T10:58:29.570Z,9.38
2018-04-11T11:01:00.593Z,9.71
2018-04-11T11:03:31.605Z,9.11
2018-04-11T11:06:02.652Z,9.29
2018-04-11T11:08:33.713Z,11.23
2018-04-11T11:11:04.755Z,13.58
2018-04-11T11:13:35.748Z,15.26
2018-04-11T11:16:06.752Z,16.84
2018-04-11T11:18:37.766Z,17.19
2018-04-11T11:21:08.729Z,18.69
2018-04-11T11:23:39.730Z,20.10
2018-04-11T11:26:10.757Z,20.13
2018-04-11T11:28:41.820Z,20.68
2018-04-11T11:31:12.794Z,21.08
2018-04-11T11:33:50.859Z,20.92
2018-04-11T11:36:21.905Z,21.10
2018-04-11T11:38:52.980Z,21.35
2018-04-11T11:41:24.078Z,21.84
2018-04-11T11:43:55.090Z,22.55
2018-04-11T11:46:26.101Z,22.85
2018-04-11T11:48:57.086Z,22.89
2018-04-11T11:51:28.075Z,23.61
2018-04-11T11:53:59.091Z,23.60
2018-04-11T11:56:30.087Z,23.42
2018-04-11T11:59:01.103Z,23.07
2018-04-11T12:01:32.089Z,23.28
2018-04-11T12:04:03.118Z,23.42
2018-04-11T12:06:34.080Z,22.24
2018-04-11T12:09:05.094Z,22.88
2018-04-11T12:11:36.098Z,23.19
2018-04-11T12:14:07.076Z,23.59
2018-04-11T12:16:38.094Z,23.04
2018-04-11T12:19:09.124Z,22.86
2018-04-11T12:21:40.118Z,22.62
2018-04-11T12:24:11.112Z,23.15
2018-04-11T12:26:42.097Z,23.02
2018-04-11T12:29:13.111Z,23.32
2018-04-11T12:31:44.084Z,23.09
2018-04-11T12:34:15.119Z,23.59
2018-04-11T12:36:46.158Z,22.72
2018-04-11T12:39:17.186Z,22.84
2018-04-11T12:41:48.190Z,22.67
2018-04-11T12:44:19.166Z,22.51
2018-04-11T12:46:50.171Z,22.05
2018-04-11T12:49:21.163Z,20.89
2018-04-11T12:51:52.185Z,20.58
2018-04-11T12:54:23.178Z,20.30
2018-04-11T12:56:54.219Z,20.40
2018-04-11T12:59:25.256Z,20.33
2018-04-11T13:01:56.263Z,20.11
2018-04-11T13:04:27.226Z,20.65
2018-04-11T13:06:58.240Z,20.42
2018-04-11T13:09:29.279Z,19.92
2018-04-11T13:12:00.286Z,19.32
2018-04-11T13:14:31.328Z,18.83
2018-04-11T13:17:02.298Z,18.52
2018-04-11T13:19:33.262Z,19.12
2018-04-11T13:22:04.286Z,20.19
2018-04-11T13:24:35.253Z,20.86
2018-04-11T13:27:06.254Z,19.83
2018-04-11T13:29:37.238Z,19.16
2018-04-11T13:32:08.253Z,18.78
2018-04-11T13:34:39.257Z,18.77
2018-04-11T13:37:10.342Z,18.77
2018-04-11T13:39:41.306Z,18.66
2018-04-11T13:42:12.278Z,18.84
2018-04-11T13:44:43.283Z,18.66
2018-04-11T13:47:14.279Z,18.00
2018-04-11T13:49:45.292Z,17.84
2018-04-11T13:52:16.261Z,18.38
2018-04-11T13:54:47.279Z,18.00
2018-04-11T13:57:18.278Z,16.99
2018-04-11T13:59:49.254Z,17.59
2018-04-11T14:02:20.265Z,18.82
2018-04-11T14:04:51.262Z,19.54
2018-04-11T14:07:22.273Z,18.95
2018-04-11T14:09:53.273Z,18.49
2018-04-11T14:12:24.293Z,17.47
2018-04-11T14:14:55.256Z,16.90
2018-04-11T14:17:26.324Z,16.91
2018-04-11T14:19:57.334Z,17.30
2018-04-11T14:22:28.303Z,17.56
2018-04-11T14:24:59.328Z,17.67
2018-04-11T14:27:30.321Z,16.93
2018-04-11T14:30:01.333Z,16.98
2018-04-11T14:32:32.339Z,16.77
2018-04-11T14:35:03.410Z,16.79
2018-04-11T14:37:34.413Z,17.54
2018-04-11T14:40:05.491Z,17.44
2018-04-11T14:42:36.668Z,17.02
2018-04-11T14:45:07.676Z,16.97
2018-04-11T14:47:38.683Z,17.31
2018-04-11T14:50:09.728Z,17.87
2018-04-11T14:52:40.722Z,18.83
2018-04-11T14:55:11.716Z,18.96
2018-04-11T14:57:42.742Z,18.94
2018-04-11T15:00:13.716Z,19.26
2018-04-11T15:02:44.738Z,19.42
2018-04-11T15:05:15.779Z,19.08
2018-04-11T15:07:46.763Z,18.72
2018-04-11T15:10:17.743Z,18.68
2018-04-11T15:12:48.745Z,18.93
2018-04-11T15:15:19.785Z,19.38
2018-04-11T15:17:50.877Z,18.87
2018-04-11T15:20:21.915Z,18.56
2018-04-11T15:22:52.878Z,18.54
2018-04-11T15:25:23.896Z,18.02
2018-04-11T15:27:54.844Z,18.44
2018-04-11T15:30:25.864Z,19.15
2018-04-11T15:32:56.842Z,19.86
2018-04-11T15:35:27.920Z,20.04
2018-04-11T15:37:58.905Z,20.39
2018-04-11T15:40:29.897Z,21.13
2018-04-11T15:43:00.935Z,20.97
2018-04-11T15:45:31.912Z,20.57
2018-04-11T15:48:02.889Z,20.30
2018-04-11T15:50:33.883Z,19.80
2018-04-11T15:53:04.877Z,19.59
2018-04-11T15:55:35.876Z,20.11
2018-04-11T15:58:06.845Z,21.08
2018-04-11T16:00:37.844Z,21.51
2018-04-11T16:03:08.862Z,22.24
2018-04-11T16:05:39.862Z,22.20
2018-04-11T16:08:10.898Z,22.39
2018-04-11T16:10:41.952Z,22.14
2018-04-11T16:13:13.022Z,22.43
2018-04-11T16:15:44.091Z,22.18
2018-04-11T16:18:15.062Z,22.38
2018-04-11T16:20:46.076Z,22.99
2018-04-11T16:23:17.107Z,23.53
2018-04-11T16:25:48.125Z,24.03
2018-04-11T16:28:19.150Z,24.41
2018-04-11T16:30:50.194Z,24.79
2018-04-11T16:33:21.214Z,25.04
2018-04-11T16:35:52.249Z,25.45
2018-04-11T16:38:23.245Z,25.56
2018-04-11T16:40:54.226Z,26.12
2018-04-11T16:43:25.265Z,26.27
2018-04-11T16:45:56.307Z,26.88
2018-04-11T16:48:27.972Z,27.32
2018-04-11T16:50:58.967Z,28.00
2018-04-11T16:53:29.947Z,28.00
2018-04-11T16:56:00.942Z,28.03
2018-04-11T16:58:31.950Z,28.20
2018-04-11T17:01:02.986Z,28.08
2018-04-11T17:03:34.049Z,28.41
2018-04-11T17:06:05.014Z,28.66
2018-04-11T17:08:36.020Z,28.89
2018-04-11T17:11:07.068Z,29.27
2018-04-11T17:13:38.100Z,29.59
2018-04-11T17:16:09.169Z,30.04
2018-04-11T17:18:40.184Z,30.74
2018-04-11T17:21:23.429Z,30.82
2018-04-11T17:24:06.935Z,31.05
2018-04-11T17:26:50.192Z,31.26
2018-04-11T17:29:33.673Z,31.41
2018-04-11T17:32:04.630Z,31.79
2018-04-11T17:34:35.642Z,32.22
2018-04-11T17:37:06.674Z,32.49
2018-04-11T17:39:37.646Z,32.41
2018-04-11T17:42:08.661Z,32.18
2018-04-11T17:44:39.710Z,32.22
2018-04-11T17:47:10.719Z,32.41
2018-04-11T17:49:41.733Z,32.39
2018-04-11T17:52:12.725Z,32.22
2018-04-11T17:54:43.740Z,32.37
2018-04-11T17:57:14.721Z,32.71
2018-04-11T17:59:45.762Z,32.87
2018-04-11T18:02:16.723Z,33.10
2018-04-11T18:04:47.746Z,33.25
2018-04-11T18:07:18.755Z,33.59
2018-04-11T18:09:49.728Z,33.64
2018-04-11T18:12:20.771Z,33.68
2018-04-11T18:14:51.761Z,34.04
2018-04-11T18:17:22.778Z,34.16
2018-04-11T18:19:53.816Z,34.30
2018-04-11T18:22:24.830Z,34.38
2018-04-11T18:24:55.819Z,34.44
2018-04-11T18:27:26.829Z,34.53
2018-04-11T18:29:57.856Z,34.38
2018-04-11T18:32:28.863Z,34.31
2018-04-11T18:34:59.873Z,34.34
2018-04-11T18:37:30.841Z,34.42
2018-04-11T18:40:01.818Z,34.55
2018-04-11T18:42:32.840Z,34.66
2018-04-11T18:45:03.876Z,34.70
2018-04-11T18:47:34.889Z,34.82
2018-04-11T18:50:05.881Z,35.21
2018-04-11T18:52:36.885Z,35.28
2018-04-11T18:55:07.904Z,35.16
2018-04-11T18:57:38.885Z,35.46
2018-04-11T19:00:09.874Z,35.40
2018-04-11T19:02:40.883Z,35.80
2018-04-11T19:05:11.884Z,35.93
2018-04-11T19:07:42.855Z,36.11
2018-04-11T19:10:13.859Z,36.19
2018-04-11T19:12:44.916Z,36.26
2018-04-11T19:15:15.945Z,36.53
2018-04-11T19:17:46.966Z,36.42
2018-04-11T19:20:17.990Z,36.28
2018-04-11T19:22:48.981Z,36.45
2018-04-11T19:25:20.012Z,36.67
2018-04-11T19:27:50.988Z,36.66
2018-04-11T19:30:22.036Z,37.13
2018-04-11T19:32:53.006Z,37.21
2018-04-11T19:35:23.992Z,37.28
2018-04-11T19:37:55.025Z,37.29
2018-04-11T19:40:26.046Z,37.34
2018-04-11T19:42:57.047Z,37.44
2018-04-11T19:45:28.074Z,37.59
2018-04-11T19:47:59.104Z,37.76
2018-04-11T19:50:30.118Z,37.82
2018-04-11T19:53:01.125Z,37.90
2018-04-11T19:55:32.105Z,38.10
2018-04-11T19:58:03.104Z,38.49
2018-04-11T20:00:34.122Z,38.62
2018-04-11T20:03:05.131Z,38.97
2018-04-11T20:05:36.154Z,39.29
2018-04-11T20:08:07.177Z,39.63
2018-04-11T20:10:38.171Z,40.22
2018-04-11T20:13:09.196Z,40.77
2018-04-11T20:15:40.214Z,41.37
2018-04-11T20:18:11.293Z,42.15
2018-04-11T20:20:42.316Z,42.73
2018-04-11T20:23:13.300Z,42.69
2018-04-11T20:25:44.268Z,43.23
2018-04-11T20:28:15.285Z,44.20
2018-04-11T20:30:46.323Z,44.33
2018-04-11T20:33:17.400Z,44.85
2018-04-11T20:35:48.412Z,45.35
2018-04-11T20:38:19.399Z,46.08
2018-04-11T20:40:50.411Z,46.53
2018-04-11T20:43:21.446Z,46.98
2018-04-11T20:45:52.399Z,47.14
2018-04-11T20:48:23.403Z,47.67
2018-04-11T20:50:54.343Z,48.02
2018-04-11T20:53:25.385Z,48.43
2018-04-11T20:55:56.325Z,48.47
2018-04-11T20:58:27.366Z,48.39
2018-04-11T21:00:58.326Z,48.27
2018-04-11T21:03:29.360Z,48.29
2018-04-11T21:06:00.387Z,47.87
2018-04-11T21:08:31.345Z,48.32
2018-04-11T21:11:02.318Z,48.34
2018-04-11T21:13:33.272Z,48.23
2018-04-11T21:16:04.235Z,48.46
2018-04-11T21:18:42.235Z,48.83
2018-04-11T21:21:13.205Z,48.69
2018-04-11T21:23:44.155Z,48.90
2018-04-11T21:26:15.096Z,49.22
2018-04-11T21:28:46.064Z,49.00
2018-04-11T21:31:17.005Z,48.80
2018-04-11T21:33:47.998Z,48.94
2018-04-11T21:36:18.948Z,48.99
2018-04-11T21:38:49.911Z,48.97
2018-04-11T21:41:20.865Z,48.90
2018-04-11T21:43:51.798Z,48.71
2018-04-11T21:46:22.791Z,48.92
2018-04-11T21:48:53.738Z,48.85
2018-04-11T21:51:24.715Z,48.55
2018-04-11T21:53:55.796Z,48.70
2018-04-11T21:56:26.775Z,48.57
2018-04-11T21:58:57.734Z,48.80
2018-04-11T22:01:28.674Z,48.85
2018-04-11T22:03:59.638Z,49.43
2018-04-11T22:06:30.585Z,49.92
2018-04-11T22:09:01.554Z,50.26
2018-04-11T22:11:32.543Z,50.71
2018-04-11T22:14:03.526Z,50.93
2018-04-11T22:16:34.497Z,51.65
2018-04-11T22:19:05.453Z,51.64
2018-04-11T22:21:36.409Z,51.71
2018-04-11T22:24:07.392Z,51.68
2018-04-11T22:26:38.379Z,51.57
2018-04-11T22:29:09.353Z,51.65
2018-04-11T22:31:40.307Z,51.68
2018-04-11T22:34:11.279Z,51.59
2018-04-11T22:36:42.243Z,51.51
2018-04-11T22:39:13.183Z,51.42
2018-04-11T22:41:44.156Z,51.17
2018-04-11T22:44:15.104Z,51.05
2018-04-11T22:46:46.077Z,51.01
2018-04-11T22:49:17.046Z,51.05
2018-04-11T22:51:47.988Z,50.78
2018-04-11T22:56:56.648Z,50.73
2018-04-11T22:59:27.639Z,50.54
2018-04-11T23:01:58.594Z,50.59
2018-04-11T23:04:29.587Z,50.42
2018-04-11T23:07:00.575Z,50.17
2018-04-11T23:09:31.576Z,50.33
2018-04-11T23:12:02.595Z,50.11
2018-04-11T23:14:33.546Z,50.38
2018-04-11T23:17:04.536Z,50.32
2018-04-11T23:19:35.502Z,50.56
2018-04-11T23:22:06.470Z,50.17
2018-04-11T23:24:37.417Z,50.35
2018-04-11T23:27:08.384Z,50.17
2018-04-11T23:29:39.410Z,50.13
2018-04-11T23:32:10.364Z,49.99
2018-04-11T23:34:41.341Z,49.95
2018-04-11T23:37:12.307Z,49.94
2018-04-11T23:39:43.269Z,49.91
2018-04-11T23:42:14.251Z,50.06
2018-04-11T23:44:45.217Z,49.85
2018-04-11T23:47:16.185Z,49.98
2018-04-11T23:49:47.170Z,49.81
2018-04-11T23:52:18.116Z,49.73
2018-04-11T23:54:49.074Z,49.84
2018-04-11T23:57:20.036Z,49.80
2018-04-11T23:59:51.028Z,49.70
